sensor_id;sensor_type;location;lat;lon;timestamp;P1;durP1;ratioP1;P2;durP2;ratioP2
23804;SDS011;12083;52.098;7.582;2022-11-20T10:47:53;74.13;;;28.43;;
23804;SDS011;12083;52.098;7.582;2022-11-20T10:50:36;76.63;;;29.83;;
23804;SDS011;12083;52.098;7.582;2022-11-20T10:53:31;94.97;;;29.57;;
23804;SDS011;12083;52.098;7.582;2022-11-20T10:56:15;82.53;;;29.10;;
23804;SDS011;12083;52.098;7.582;2022-11-20T10:59:00;85.43;;;29.37;;
23804;SDS011;12083;52.098;7.582;2022-11-20T11:01:40;72.13;;;29.27;;
23804;SDS011;12083;52.098;7.582;2022-11-20T11:04:14;70.83;;;29.20;;
23804;SDS011;12083;52.098;7.582;2022-11-20T11:06:45;63.67;;;28.57;;
23804;SDS011;12083;52.098;7.582;2022-11-20T11:09:16;60.03;;;25.87;;
23804;SDS011;12083;52.098;7.582;2022-11-20T11:11:46;52.50;;;25.20;;
23804;SDS011;12083;52.098;7.582;2022-11-20T11:14:13;50.63;;;25.10;;
23804;SDS011;12083;52.098;7.582;2022-11-20T11:16:50;51.37;;;25.63;;
23804;SDS011;12083;52.098;7.582;2022-11-20T11:19:17;53.27;;;26.47;;
23804;SDS011;12083;52.098;7.582;2022-11-20T11:21:47;50.13;;;24.43;;
23804;SDS011;12083;52.098;7.582;2022-11-20T11:24:21;62.37;;;22.77;;
23804;SDS011;12083;52.098;7.582;2022-11-20T11:26:58;47.73;;;24.47;;
23804;SDS011;12083;52.098;7.582;2022-11-20T11:29:30;50.67;;;23.57;;
23804;SDS011;12083;52.098;7.582;2022-11-20T11:32:29;50.93;;;25.13;;
23804;SDS011;12083;52.098;7.582;2022-11-20T11:35:05;54.23;;;25.00;;
23804;SDS011;12083;52.098;7.582;2022-11-20T11:37:33;51.60;;;26.50;;
23804;SDS011;12083;52.098;7.582;2022-11-20T11:40:01;42.10;;;21.13;;
23804;SDS011;12083;52.098;7.582;2022-11-20T11:42:28;42.60;;;21.50;;
23804;SDS011;12083;52.098;7.582;2022-11-20T11:44:55;43.97;;;22.30;;
23804;SDS011;12083;52.098;7.582;2022-11-20T11:47:33;73.13;;;36.97;;
23804;SDS011;12083;52.098;7.582;2022-11-20T11:58:02;70.57;;;32.23;;
23804;SDS011;12083;52.098;7.582;2022-11-20T12:00:36;42.30;;;20.83;;
23804;SDS011;12083;52.098;7.582;2022-11-20T12:03:17;39.20;;;19.40;;
23804;SDS011;12083;52.098;7.582;2022-11-20T12:05:57;33.20;;;17.63;;
23804;SDS011;12083;52.098;7.582;2022-11-20T12:08:29;35.70;;;18.73;;
23804;SDS011;12083;52.098;7.582;2022-11-20T12:13:36;24.50;;;15.10;;
23804;SDS011;12083;52.098;7.582;2022-11-20T12:16:49;24.87;;;15.03;;
23804;SDS011;12083;52.098;7.582;2022-11-20T12:19:17;27.93;;;15.33;;
23804;SDS011;12083;52.098;7.582;2022-11-20T12:30:08;16.90;;;11.13;;
23804;SDS011;12083;52.098;7.582;2022-11-20T12:35:42;13.33;;;8.90;;
23804;SDS011;12083;52.098;7.582;2022-11-20T12:44:16;17.47;;;9.10;;
23804;SDS011;12083;52.098;7.582;2022-11-20T12:47:24;17.47;;;8.83;;
23804;SDS011;12083;52.098;7.582;2022-11-20T12:50:16;14.70;;;7.67;;
23804;SDS011;12083;52.098;7.582;2022-11-20T12:52:59;14.53;;;9.07;;
23804;SDS011;12083;52.098;7.582;2022-11-20T12:58:41;14.90;;;8.27;;
23804;SDS011;12083;52.098;7.582;2022-11-20T13:04:16;14.03;;;8.87;;
23804;SDS011;12083;52.098;7.582;2022-11-20T13:06:44;17.17;;;8.60;;
23804;SDS011;12083;52.098;7.582;2022-11-20T13:09:11;15.37;;;9.83;;
23804;SDS011;12083;52.098;7.582;2022-11-20T13:14:39;19.60;;;11.30;;
23804;SDS011;12083;52.098;7.582;2022-11-20T13:17:16;18.00;;;10.17;;
23804;SDS011;12083;52.098;7.582;2022-11-20T13:19:58;15.50;;;9.03;;
23804;SDS011;12083;52.098;7.582;2022-11-20T13:22:28;15.67;;;10.23;;
23804;SDS011;12083;52.098;7.582;2022-11-20T13:25:10;16.07;;;10.10;;
23804;SDS011;12083;52.098;7.582;2022-11-20T13:27:47;15.17;;;9.13;;
23804;SDS011;12083;52.098;7.582;2022-11-20T13:30:15;22.67;;;11.40;;
23804;SDS011;12083;52.098;7.582;2022-11-20T13:32:50;45.03;;;19.50;;
23804;SDS011;12083;52.098;7.582;2022-11-20T13:55:51;22.93;;;11.93;;
23804;SDS011;12083;52.098;7.582;2022-11-20T13:58:26;22.33;;;12.43;;
